createdAt,value
2024-03-05T00:01:29.559Z,61.70
2024-03-05T00:03:57.254Z,60.20
2024-03-05T00:06:24.919Z,59.30
2024-03-05T00:08:52.570Z,63.90
2024-03-05T00:11:20.187Z,58.30
2024-03-05T00:13:48.016Z,58.40
2024-03-05T00:16:15.699Z,50.60
2024-03-05T00:18:43.240Z,54.80
2024-03-05T00:21:10.880Z,50.50
2024-03-05T00:23:38.438Z,47.70
2024-03-05T00:26:06.107Z,44.50
2024-03-05T00:28:34.123Z,47.50
2024-03-05T00:31:01.732Z,52.80
2024-03-05T00:33:29.289Z,50.60
2024-03-05T00:35:56.959Z,49.00
2024-03-05T00:38:29.080Z,52.50
2024-03-05T00:41:01.322Z,48.30
2024-03-05T00:43:29.204Z,50.30
2024-03-05T00:45:56.857Z,49.40
2024-03-05T00:48:24.653Z,48.30
2024-03-05T00:50:52.240Z,57.20
2024-03-05T00:53:20.213Z,51.70
2024-03-05T00:55:47.791Z,47.90
2024-03-05T00:58:15.348Z,46.40
2024-03-05T01:00:42.887Z,54.00
2024-03-05T01:03:10.459Z,51.20
2024-03-05T01:05:38.104Z,43.80
2024-03-05T01:08:05.687Z,41.20
2024-03-05T01:10:33.252Z,40.20
2024-03-05T01:13:00.898Z,50.30
2024-03-05T01:15:28.515Z,39.30
2024-03-05T01:17:56.649Z,35.20
2024-03-05T01:20:24.280Z,35.90
2024-03-05T01:22:51.899Z,37.40
2024-03-05T01:25:19.633Z,37.90
2024-03-05T01:27:47.272Z,35.90
2024-03-05T01:30:14.946Z,46.30
2024-03-05T01:32:42.637Z,43.10
2024-03-05T01:35:10.163Z,43.80
2024-03-05T01:37:37.819Z,47.40
2024-03-05T01:40:05.577Z,38.50
2024-03-05T01:42:33.442Z,39.00
2024-03-05T01:45:00.920Z,43.80
2024-03-05T01:47:28.688Z,41.80
2024-03-05T01:49:56.579Z,42.80
2024-03-05T01:52:24.354Z,44.20
2024-03-05T01:54:52.161Z,41.50
2024-03-05T01:57:19.930Z,41.00
2024-03-05T01:59:47.584Z,43.60
2024-03-05T02:02:15.358Z,46.90
2024-03-05T02:04:43.153Z,40.40
2024-03-05T02:07:11.093Z,46.60
2024-03-05T02:09:38.740Z,44.40
2024-03-05T02:12:06.453Z,48.90
2024-03-05T02:14:34.183Z,48.10
2024-03-05T02:17:01.981Z,42.20
2024-03-05T02:19:29.878Z,39.10
2024-03-05T02:21:57.665Z,35.50
2024-03-05T02:24:25.226Z,39.40
2024-03-05T02:26:52.902Z,40.80
2024-03-05T02:29:20.451Z,43.70
2024-03-05T02:31:48.212Z,43.60
2024-03-05T02:34:16.198Z,39.20
2024-03-05T02:36:43.735Z,47.00
2024-03-05T02:39:11.307Z,44.80
2024-03-05T02:41:38.964Z,43.70
2024-03-05T02:44:06.629Z,41.30
2024-03-05T02:46:34.311Z,42.10
2024-03-05T02:49:01.844Z,42.20
2024-03-05T02:51:29.500Z,41.60
2024-03-05T02:53:57.071Z,42.50
2024-03-05T02:56:24.630Z,39.90
2024-03-05T02:58:52.387Z,38.60
2024-03-05T03:01:20.212Z,36.00
2024-03-05T03:03:47.816Z,42.50
2024-03-05T03:06:15.491Z,41.70
2024-03-05T03:08:43.140Z,45.50
2024-03-05T03:11:11.094Z,48.80
2024-03-05T03:13:38.875Z,37.00
2024-03-05T03:16:06.430Z,40.60
2024-03-05T03:18:34.086Z,43.20
2024-03-05T03:21:01.653Z,52.10
2024-03-05T03:23:29.619Z,49.30
2024-03-05T03:25:57.182Z,46.70
2024-03-05T03:28:24.733Z,44.10
2024-03-05T03:30:52.398Z,39.70
2024-03-05T03:33:20.061Z,49.10
2024-03-05T03:35:47.521Z,48.30
2024-03-05T03:38:15.072Z,48.60
2024-03-05T03:40:42.656Z,50.30
2024-03-05T03:43:10.407Z,51.50
2024-03-05T03:45:38.076Z,46.40
2024-03-05T03:48:05.638Z,49.00
2024-03-05T03:50:33.579Z,51.30
2024-03-05T03:53:01.195Z,48.30
2024-03-05T03:55:28.941Z,43.00
2024-03-05T03:57:56.484Z,49.30
2024-03-05T04:00:24.125Z,46.50
2024-03-05T04:02:51.695Z,48.20
2024-03-05T04:05:19.383Z,46.10
2024-03-05T04:07:47.142Z,45.80
2024-03-05T04:10:14.971Z,48.40
2024-03-05T04:12:42.753Z,39.90
2024-03-05T04:15:10.905Z,40.60
2024-03-05T04:17:38.942Z,38.10
2024-03-05T04:20:06.868Z,36.10
2024-03-05T04:22:34.650Z,33.90
2024-03-05T04:25:02.406Z,36.60
2024-03-05T04:27:29.965Z,38.70
2024-03-05T04:29:57.628Z,39.30
2024-03-05T04:32:25.314Z,35.70
2024-03-05T04:34:52.970Z,39.50
2024-03-05T04:37:20.608Z,42.80
2024-03-05T04:39:48.565Z,41.10
2024-03-05T04:42:16.242Z,40.50
2024-03-05T04:44:43.792Z,37.80
2024-03-05T04:47:11.345Z,39.50
2024-03-05T04:49:39.030Z,39.90
2024-03-05T04:52:06.661Z,35.60
2024-03-05T04:54:34.326Z,39.50
2024-03-05T04:57:01.882Z,36.00
2024-03-05T04:59:29.567Z,37.60
2024-03-05T05:01:57.285Z,41.80
2024-03-05T05:04:25.095Z,44.70
2024-03-05T05:06:53.036Z,44.10
2024-03-05T05:09:20.733Z,42.40
2024-03-05T05:11:48.490Z,39.30
2024-03-05T05:14:16.134Z,35.20
2024-03-05T05:16:43.805Z,42.30
2024-03-05T05:19:11.452Z,39.20
2024-03-05T05:21:39.117Z,44.80
2024-03-05T05:24:06.673Z,46.90
2024-03-05T05:26:34.330Z,47.40
2024-03-05T05:29:02.037Z,43.60
2024-03-05T05:31:29.896Z,57.50
2024-03-05T05:33:57.826Z,48.10
2024-03-05T05:36:25.497Z,52.10
2024-03-05T05:38:53.053Z,48.50
2024-03-05T05:41:20.716Z,51.10
2024-03-05T05:43:48.310Z,46.00
2024-03-05T05:46:15.981Z,51.40
2024-03-05T05:48:43.831Z,55.70
2024-03-05T05:51:11.602Z,48.30
2024-03-05T05:53:39.420Z,55.30
2024-03-05T05:56:07.052Z,55.50
2024-03-05T05:58:34.793Z,61.30
2024-03-05T06:01:02.438Z,60.50
2024-03-05T06:03:29.978Z,75.20
2024-03-05T06:05:57.532Z,55.70
2024-03-05T06:08:25.199Z,53.20
2024-03-05T06:10:52.786Z,50.90
2024-03-05T06:13:20.559Z,63.60
2024-03-05T06:15:48.190Z,55.40
2024-03-05T06:18:15.879Z,59.40
2024-03-05T06:20:43.833Z,51.20
2024-03-05T06:23:11.944Z,55.00
2024-03-05T06:25:39.659Z,51.60
2024-03-05T06:28:07.312Z,51.10
2024-03-05T06:30:34.864Z,63.20
2024-03-05T06:33:02.578Z,58.40
2024-03-05T06:35:30.392Z,53.10
2024-03-05T06:37:58.701Z,60.80
2024-03-05T06:40:26.765Z,59.00
2024-03-05T06:42:54.874Z,62.90
2024-03-05T06:45:22.683Z,66.30
2024-03-05T06:47:54.324Z,66.80
2024-03-05T06:50:22.306Z,66.00
2024-03-05T06:52:49.884Z,69.90
2024-03-05T06:55:17.536Z,63.70
2024-03-05T06:57:45.080Z,61.40
2024-03-05T07:00:12.639Z,56.90
2024-03-05T07:02:40.303Z,68.50
2024-03-05T07:05:08.111Z,57.20
2024-03-05T07:07:35.801Z,60.10
2024-03-05T07:10:03.493Z,60.50
2024-03-05T07:12:31.488Z,57.90
2024-03-05T07:14:59.129Z,50.30
2024-03-05T07:17:26.682Z,54.50
2024-03-05T07:19:54.595Z,51.40
2024-03-05T07:22:22.248Z,65.60
2024-03-05T07:24:49.979Z,62.50
2024-03-05T07:27:17.552Z,56.00
2024-03-05T07:29:45.201Z,51.90
2024-03-05T07:32:12.784Z,49.10
2024-03-05T07:34:40.497Z,45.70
2024-03-05T07:37:08.490Z,48.50
2024-03-05T07:39:36.051Z,48.00
2024-03-05T07:42:03.816Z,43.50
2024-03-05T07:44:31.437Z,47.90
2024-03-05T07:46:59.145Z,46.60
2024-03-05T07:49:26.696Z,45.50
2024-03-05T07:51:54.257Z,46.90
2024-03-05T07:54:21.918Z,45.50
2024-03-05T07:56:49.576Z,49.30
2024-03-05T07:59:17.177Z,51.20
2024-03-05T08:01:45.124Z,44.50
2024-03-05T08:04:12.870Z,44.30
2024-03-05T08:06:40.535Z,41.00
2024-03-05T08:09:08.153Z,43.60
2024-03-05T08:11:35.903Z,41.10
2024-03-05T08:14:03.756Z,39.50
2024-03-05T08:16:31.716Z,37.50
2024-03-05T08:18:59.450Z,40.10
2024-03-05T08:21:27.118Z,43.00
2024-03-05T08:23:54.784Z,44.40
2024-03-05T08:26:22.364Z,49.70
2024-03-05T08:28:50.415Z,42.00
2024-03-05T08:31:18.096Z,44.90
2024-03-05T08:33:45.884Z,46.40
2024-03-05T08:36:13.484Z,44.20
2024-03-05T08:38:41.156Z,46.30
2024-03-05T08:41:08.955Z,47.10
2024-03-05T08:43:36.719Z,47.60
2024-03-05T08:46:04.352Z,40.00
2024-03-05T08:48:31.895Z,38.90
2024-03-05T08:50:59.576Z,45.60
2024-03-05T08:53:27.534Z,37.80
2024-03-05T08:55:55.169Z,40.20
2024-03-05T08:58:22.992Z,43.90
2024-03-05T09:00:50.685Z,40.90
2024-03-05T09:03:18.489Z,38.10
2024-03-05T09:05:48.145Z,34.50
2024-03-05T09:08:16.268Z,35.60
2024-03-05T09:10:43.881Z,38.30
2024-03-05T09:13:11.489Z,43.90
2024-03-05T09:15:42.849Z,46.20
2024-03-05T09:18:12.093Z,42.20
2024-03-05T09:20:39.701Z,37.00
2024-03-05T09:23:07.352Z,44.40
2024-03-05T09:25:35.028Z,42.80
2024-03-05T09:28:02.681Z,40.80
2024-03-05T09:30:30.237Z,43.50
2024-03-05T09:32:57.900Z,39.40
2024-03-05T09:35:26.093Z,38.50
2024-03-05T09:37:53.930Z,38.90
2024-03-05T09:40:21.633Z,42.30
2024-03-05T09:42:49.675Z,43.60
2024-03-05T09:45:17.721Z,39.60
2024-03-05T09:50:14.270Z,42.30
2024-03-05T09:52:42.261Z,36.40
2024-03-05T09:55:10.100Z,46.70
2024-03-05T09:57:37.795Z,41.10
2024-03-05T10:00:05.498Z,40.90
2024-03-05T10:02:33.257Z,39.80
2024-03-05T10:05:01.082Z,37.30
2024-03-05T10:07:29.187Z,40.00
2024-03-05T10:09:56.827Z,36.00
2024-03-05T10:12:24.489Z,35.90
2024-03-05T10:14:54.748Z,35.40
2024-03-05T10:17:22.573Z,37.50
2024-03-05T10:19:50.152Z,31.60
2024-03-05T10:22:17.696Z,32.90
2024-03-05T10:24:45.246Z,30.30
2024-03-05T10:27:12.958Z,36.20
2024-03-05T10:29:40.773Z,30.60
2024-03-05T10:32:08.377Z,27.70
2024-03-05T10:34:36.443Z,30.90
2024-03-05T10:37:04.072Z,29.10
2024-03-05T10:39:31.620Z,41.40
2024-03-05T10:41:59.184Z,26.50
2024-03-05T10:44:26.844Z,30.80
2024-03-05T10:46:54.433Z,33.60
2024-03-05T10:49:22.113Z,32.10
2024-03-05T10:51:49.845Z,30.50
2024-03-05T10:54:17.391Z,27.20
2024-03-05T10:56:45.622Z,30.10
2024-03-05T10:59:13.438Z,32.90
2024-03-05T11:01:41.869Z,36.10
2024-03-05T11:04:10.285Z,31.80
2024-03-05T11:06:37.849Z,30.60
2024-03-05T11:09:05.616Z,30.00
2024-03-05T11:11:33.412Z,34.30
2024-03-05T11:14:01.182Z,33.10
2024-03-05T11:16:30.796Z,30.20
2024-03-05T11:18:58.729Z,39.20
2024-03-05T11:21:26.394Z,36.20
2024-03-05T11:23:54.417Z,42.30
2024-03-05T11:26:23.081Z,40.50
2024-03-05T11:28:50.928Z,41.90
2024-03-05T11:31:20.580Z,44.70
2024-03-05T11:33:49.712Z,40.50
2024-03-05T11:36:17.363Z,34.30
2024-03-05T11:38:45.025Z,40.30
2024-03-05T11:41:12.753Z,43.00
2024-03-05T11:43:40.376Z,40.00
2024-03-05T11:46:08.010Z,34.40
2024-03-05T11:48:35.887Z,36.30
2024-03-05T11:51:03.742Z,37.50
2024-03-05T11:53:31.402Z,27.10
2024-03-05T11:55:59.125Z,30.90
2024-03-05T11:58:27.142Z,31.50
2024-03-05T12:00:55.105Z,31.70
2024-03-05T12:03:22.674Z,35.30
2024-03-05T12:05:50.444Z,30.90
2024-03-05T12:08:18.105Z,33.30
2024-03-05T12:10:45.724Z,35.90
2024-03-05T12:13:13.824Z,35.90
2024-03-05T12:15:41.589Z,35.60
2024-03-05T12:18:09.336Z,30.20
2024-03-05T12:20:37.022Z,35.00
2024-03-05T12:23:04.853Z,32.10
2024-03-05T12:25:32.565Z,34.40
2024-03-05T12:28:00.303Z,30.60
2024-03-05T12:30:27.863Z,32.40
2024-03-05T12:32:55.752Z,33.20
2024-03-05T12:35:23.499Z,33.70
2024-03-05T12:37:51.497Z,33.10
2024-03-05T12:40:19.239Z,34.40
2024-03-05T12:42:46.891Z,35.70
2024-03-05T12:45:14.451Z,35.20
2024-03-05T12:47:42.137Z,32.10
2024-03-05T12:50:10.036Z,30.10
2024-03-05T12:52:38.067Z,30.60
2024-03-05T12:55:05.798Z,31.20
2024-03-05T12:57:33.584Z,31.80
2024-03-05T13:00:01.132Z,27.40
2024-03-05T13:02:29.258Z,29.70
2024-03-05T13:04:58.936Z,29.70
2024-03-05T13:07:27.680Z,27.40
2024-03-05T13:09:55.688Z,33.00
2024-03-05T13:12:23.348Z,24.80
2024-03-05T13:14:50.912Z,26.20
2024-03-05T13:17:18.773Z,28.40
2024-03-05T13:19:46.684Z,38.10
2024-03-05T13:22:14.875Z,26.60
2024-03-05T13:24:42.875Z,26.00
2024-03-05T13:27:10.428Z,26.80
2024-03-05T13:29:38.398Z,25.60
2024-03-05T13:32:06.159Z,22.60
2024-03-05T13:34:34.042Z,28.40
2024-03-05T13:37:01.649Z,25.70
2024-03-05T13:39:29.350Z,26.80
2024-03-05T13:41:56.997Z,29.30
2024-03-05T13:44:25.081Z,22.70
2024-03-05T13:46:53.374Z,24.20
2024-03-05T13:49:21.769Z,21.10
2024-03-05T13:51:50.020Z,22.50
2024-03-05T13:54:17.681Z,22.80
2024-03-05T13:56:45.259Z,20.50
2024-03-05T13:59:13.113Z,22.00
2024-03-05T14:01:41.013Z,21.80
2024-03-05T14:04:08.754Z,23.60
2024-03-05T14:06:36.403Z,22.90
2024-03-05T14:09:04.060Z,24.20
2024-03-05T14:11:32.253Z,21.40
2024-03-05T14:14:00.040Z,23.00
2024-03-05T14:16:28.111Z,21.40
2024-03-05T14:18:55.728Z,21.70
2024-03-05T14:21:23.389Z,18.00
2024-03-05T14:23:51.060Z,20.20
2024-03-05T14:26:18.723Z,22.70
2024-03-05T14:28:46.441Z,19.70
2024-03-05T14:31:14.138Z,21.00
2024-03-05T14:33:41.718Z,20.70
2024-03-05T14:36:11.209Z,20.30
2024-03-05T14:38:41.015Z,18.30
2024-03-05T14:41:09.011Z,16.90
2024-03-05T14:43:36.670Z,18.30
2024-03-05T14:46:04.309Z,15.20
2024-03-05T14:48:31.981Z,18.40
2024-03-05T14:50:59.629Z,15.60
2024-03-05T14:53:27.296Z,19.10
2024-03-05T14:55:55.231Z,17.00
2024-03-05T14:58:23.220Z,16.70
2024-03-05T15:00:50.901Z,19.20
2024-03-05T15:03:18.557Z,18.10
2024-03-05T15:05:46.817Z,16.90
2024-03-05T15:08:14.677Z,20.40
2024-03-05T15:10:42.368Z,19.80
2024-03-05T15:13:10.022Z,17.90
2024-03-05T15:15:37.793Z,19.20
2024-03-05T15:18:05.470Z,18.00
2024-03-05T15:20:33.105Z,20.20
2024-03-05T15:23:00.866Z,22.50
2024-03-05T15:25:28.696Z,20.90
2024-03-05T15:28:02.106Z,20.70
2024-03-05T15:30:33.609Z,19.10
2024-03-05T15:33:02.490Z,20.20
2024-03-05T15:35:30.574Z,19.20
2024-03-05T15:37:58.330Z,23.00
2024-03-05T15:40:25.897Z,20.30
2024-03-05T15:42:53.676Z,18.50
2024-03-05T15:45:21.286Z,20.00
2024-03-05T15:47:49.105Z,20.40
2024-03-05T15:50:17.007Z,22.30
2024-03-05T15:52:44.980Z,20.20
2024-03-05T15:55:12.781Z,21.20
2024-03-05T15:57:40.318Z,20.50
2024-03-05T16:00:08.002Z,23.30
2024-03-05T16:02:35.705Z,24.70
2024-03-05T16:05:17.555Z,20.90
2024-03-05T16:07:50.998Z,20.20
2024-03-05T16:10:18.800Z,22.70
2024-03-05T16:12:46.369Z,22.00
2024-03-05T16:15:14.064Z,23.20
2024-03-05T16:17:41.820Z,21.20
2024-03-05T16:20:09.822Z,23.70
2024-03-05T16:22:37.509Z,19.20
2024-03-05T16:25:05.277Z,25.40
2024-03-05T16:27:32.950Z,23.10
2024-03-05T16:30:00.533Z,24.00
2024-03-05T16:32:28.248Z,25.10
2024-03-05T16:34:56.048Z,22.80
2024-03-05T16:37:23.716Z,32.60
2024-03-05T16:39:51.473Z,35.30
2024-03-05T16:42:19.126Z,40.30
2024-03-05T16:44:47.080Z,30.10
2024-03-05T16:47:14.797Z,38.90
2024-03-05T16:49:42.564Z,42.10
2024-03-05T16:52:10.378Z,36.90
2024-03-05T16:54:38.059Z,36.20
2024-03-05T16:57:05.506Z,35.20
2024-03-05T16:59:33.162Z,39.30
2024-03-05T17:02:00.777Z,38.90
2024-03-05T17:04:28.622Z,39.70
2024-03-05T17:06:56.417Z,76.40
2024-03-05T17:09:24.105Z,54.60
2024-03-05T17:11:52.118Z,113.90
2024-03-05T17:14:19.945Z,116.50
2024-03-05T17:16:47.716Z,152.20
2024-03-05T17:19:15.575Z,151.90
2024-03-05T17:21:43.147Z,178.70
2024-03-05T17:24:10.816Z,169.90
2024-03-05T17:26:38.355Z,145.30
2024-03-05T17:29:06.038Z,320.40
2024-03-05T17:31:33.832Z,129.40
2024-03-05T17:34:01.552Z,68.20
2024-03-05T17:36:29.514Z,49.20
2024-03-05T17:38:57.075Z,33.10
2024-03-05T17:41:24.911Z,30.60
2024-03-05T17:43:52.616Z,29.90
2024-03-05T17:46:20.282Z,25.20
2024-03-05T17:48:47.838Z,27.70
2024-03-05T17:51:15.489Z,26.60
2024-03-05T17:53:43.044Z,25.60
2024-03-05T17:56:10.777Z,24.90
2024-03-05T17:58:38.587Z,33.00
2024-03-05T18:01:06.566Z,38.00
2024-03-05T18:03:34.201Z,39.80
2024-03-05T18:06:01.870Z,52.10
2024-03-05T18:08:29.519Z,66.70
2024-03-05T18:10:57.190Z,76.10
2024-03-05T18:13:24.983Z,89.60
2024-03-05T18:15:52.650Z,103.40
2024-03-05T18:18:20.371Z,98.90
2024-03-05T18:20:47.995Z,111.90
2024-03-05T18:23:15.807Z,89.90
2024-03-05T18:25:43.658Z,82.50
2024-03-05T18:28:11.737Z,80.30
2024-03-05T18:30:39.759Z,76.70
2024-03-05T18:33:09.090Z,67.40
2024-03-05T18:35:37.840Z,40.30
2024-03-05T18:40:36.278Z,35.60
2024-03-05T18:43:03.968Z,35.20
2024-03-05T18:45:31.620Z,38.10
2024-03-05T18:48:05.577Z,40.10
2024-03-05T18:50:38.960Z,38.70
2024-03-05T18:53:07.776Z,34.60
2024-03-05T18:58:03.332Z,33.80
2024-03-05T19:00:31.018Z,31.30
2024-03-05T19:02:58.560Z,35.90
2024-03-05T19:05:26.229Z,37.90
2024-03-05T19:07:53.848Z,36.80
2024-03-05T19:10:21.660Z,40.70
2024-03-05T19:12:49.214Z,34.00
2024-03-05T19:15:17.171Z,34.10
2024-03-05T19:17:44.971Z,32.40
2024-03-05T19:20:12.611Z,31.40
2024-03-05T19:22:40.475Z,27.40
2024-03-05T19:25:08.234Z,28.70
2024-03-05T19:27:35.790Z,30.50
2024-03-05T19:30:03.446Z,32.10
2024-03-05T19:32:31.018Z,33.50
2024-03-05T19:34:58.845Z,35.90
2024-03-05T19:37:26.711Z,35.00
2024-03-05T19:39:54.805Z,34.00
2024-03-05T19:42:22.480Z,40.50
2024-03-05T19:44:50.055Z,38.80
2024-03-05T19:47:17.715Z,34.70
2024-03-05T19:49:45.485Z,33.30
2024-03-05T19:52:13.132Z,39.30
2024-03-05T19:54:40.702Z,42.80
2024-03-05T19:57:08.152Z,44.00
2024-03-05T19:59:35.803Z,42.50
2024-03-05T20:02:03.497Z,46.30
2024-03-05T20:04:31.137Z,46.30
2024-03-05T20:06:59.395Z,51.90
2024-03-05T20:09:27.262Z,44.70
2024-03-05T20:11:55.009Z,35.30
2024-03-05T20:14:22.700Z,42.50
2024-03-05T20:16:50.419Z,41.00
2024-03-05T20:19:18.112Z,44.90
2024-03-05T20:21:45.768Z,40.20
2024-03-05T20:24:13.342Z,42.00
2024-03-05T20:26:40.890Z,40.20
2024-03-05T20:29:08.563Z,38.50
2024-03-05T20:31:36.343Z,38.60
2024-03-05T20:34:04.281Z,31.40
2024-03-05T20:36:31.847Z,36.40
2024-03-05T20:38:59.510Z,33.50
2024-03-05T20:41:27.175Z,37.00
2024-03-05T20:43:54.860Z,34.00
2024-03-05T20:46:22.512Z,34.00
2024-03-05T20:48:50.048Z,39.90
2024-03-05T20:51:17.617Z,38.30
2024-03-05T20:53:45.172Z,38.00
2024-03-05T20:56:12.913Z,37.70
2024-03-05T20:58:40.646Z,36.70
2024-03-05T21:01:08.276Z,37.90
2024-03-05T21:03:35.920Z,32.80
2024-03-05T21:06:03.479Z,37.50
2024-03-05T21:08:31.048Z,37.90
2024-03-05T21:10:58.722Z,34.70
2024-03-05T21:13:26.777Z,38.00
2024-03-05T21:15:54.542Z,36.10
2024-03-05T21:18:22.117Z,56.90
2024-03-05T21:20:49.777Z,100.40
2024-03-05T21:23:18.736Z,108.80
2024-03-05T21:26:02.862Z,100.50
2024-03-05T21:28:34.589Z,96.50
2024-03-05T21:31:02.426Z,98.60
2024-03-05T21:33:29.989Z,96.80
2024-03-05T21:35:57.449Z,93.40
2024-03-05T21:38:24.991Z,101.70
2024-03-05T21:40:52.684Z,97.50
2024-03-05T21:43:20.314Z,100.60
2024-03-05T21:45:47.975Z,101.30
2024-03-05T21:48:16.012Z,99.00
2024-03-05T21:50:43.707Z,189.00
2024-03-05T21:53:11.313Z,97.50
2024-03-05T21:55:38.996Z,87.40
2024-03-05T21:58:06.801Z,83.10
2024-03-05T22:00:34.400Z,88.00
2024-03-05T22:03:02.132Z,73.10
2024-03-05T22:05:29.696Z,73.60
2024-03-05T22:07:57.303Z,68.80
2024-03-05T22:10:25.102Z,74.80
2024-03-05T22:12:53.075Z,82.00
2024-03-05T22:15:20.644Z,77.90
2024-03-05T22:17:48.217Z,80.20
2024-03-05T22:20:15.943Z,85.20
2024-03-05T22:22:43.720Z,81.10
2024-03-05T22:25:11.285Z,84.80
2024-03-05T22:27:53.178Z,85.70
2024-03-05T22:30:21.769Z,79.10
2024-03-05T22:32:49.443Z,62.00
2024-03-05T22:35:17.166Z,58.20
2024-03-05T22:37:46.489Z,50.50
2024-03-05T22:40:15.064Z,46.50
2024-03-05T22:42:42.738Z,45.30
2024-03-05T22:45:10.345Z,44.60
2024-03-05T22:47:38.238Z,44.10
2024-03-05T22:50:05.974Z,43.30
2024-03-05T22:52:33.725Z,39.20
2024-03-05T22:55:01.360Z,39.30
2024-03-05T22:57:29.022Z,35.30
2024-03-05T22:59:56.564Z,37.30
2024-03-05T23:02:24.647Z,35.80
2024-03-05T23:04:52.335Z,33.50
2024-03-05T23:07:20.063Z,37.20
2024-03-05T23:09:47.622Z,39.00
2024-03-05T23:12:15.294Z,36.90
2024-03-05T23:14:42.945Z,31.10
2024-03-05T23:17:10.651Z,38.50
2024-03-05T23:19:38.499Z,38.60
2024-03-05T23:22:06.242Z,39.60
2024-03-05T23:24:33.800Z,38.50
2024-03-05T23:27:01.363Z,37.00
2024-03-05T23:29:29.538Z,34.90
2024-03-05T23:31:57.278Z,39.20
2024-03-05T23:34:24.953Z,39.70
2024-03-05T23:36:52.511Z,38.50
2024-03-05T23:39:20.179Z,35.30
2024-03-05T23:41:47.809Z,38.70
2024-03-05T23:44:15.616Z,41.40
2024-03-05T23:46:43.199Z,37.10
2024-03-05T23:49:11.233Z,40.50
2024-03-05T23:51:39.209Z,40.60
2024-03-05T23:54:07.177Z,41.40
2024-03-05T23:56:34.749Z,39.20
2024-03-05T23:59:02.438Z,39.90
